Time;durP1;ratioP1;P1;durP2;ratioP2;P2;SDS_P1;SDS_P2;PMS_P1;PMS_P2;Temp;Humidity;BMP_temperature;BMP_pressure;BME280_temperature;BME280_humidity;BME280_pressure;Samples;Min_cycle;Max_cycle;Signal;HPM_P1;HPM_P2
2020/12/12 00:00:00;;;;;;;6.97;6.28;;;4.70;33.60;;;;;;5075528;28;20389;-73
2020/12/12 00:02:30;;;;;;;7.00;6.30;;;4.80;32.80;;;;;;5074724;28;20179;-73
2020/12/12 00:04:57;;;;;;;9.50;8.52;;;4.80;33.70;;;;;;5074395;28;20569;-71
2020/12/12 00:07:22;;;;;;;7.53;6.80;;;4.80;34.00;;;;;;5074430;28;20163;-71
2020/12/12 00:09:51;;;;;;;7.50;6.77;;;4.80;33.80;;;;;;5074881;28;20191;-73
2020/12/12 00:12:16;;;;;;;10.48;7.22;;;4.90;33.90;;;;;;5076026;28;20172;-73
2020/12/12 00:14:42;;;;;;;5.80;5.30;;;4.90;33.90;;;;;;5075750;28;20177;-73
2020/12/12 00:17:07;;;;;;;6.20;5.60;;;4.90;34.10;;;;;;5075031;28;20551;-72
2020/12/12 00:19:33;;;;;;;7.93;6.60;;;5.00;33.70;;;;;;5074774;28;20207;-72
2020/12/12 00:21:58;;;;;;;6.40;5.80;;;5.10;33.40;;;;;;5073967;28;20543;-72
2020/12/12 00:24:24;;;;;;;8.53;6.07;;;5.10;33.00;;;;;;5074001;28;20701;-72
2020/12/12 00:26:49;;;;;;;6.57;5.77;;;5.10;33.40;;;;;;5074047;28;20219;-72
2020/12/12 00:29:16;;;;;;;6.90;6.30;;;5.10;33.90;;;;;;5073468;28;20207;-71
2020/12/12 00:31:42;;;;;;;7.30;5.67;;;5.10;33.90;;;;;;5073883;28;20260;-71
2020/12/12 00:34:08;;;;;;;6.75;6.05;;;5.10;33.50;;;;;;5073599;28;20411;-72
2020/12/12 00:36:43;;;;;;;6.23;5.67;;;5.10;33.10;;;;;;5072521;28;20239;-73
2020/12/12 00:39:09;;;;;;;8.45;6.00;;;5.20;33.10;;;;;;5073427;28;20175;-71
2020/12/12 00:41:39;;;;;;;9.43;5.70;;;5.20;33.10;;;;;;5073551;28;20214;-72
2020/12/12 00:44:06;;;;;;;6.30;5.70;;;5.20;33.10;;;;;;5072003;28;20180;-72
2020/12/12 00:46:32;;;;;;;6.65;6.00;;;5.10;33.00;;;;;;5072992;28;20297;-72
2020/12/12 00:48:58;;;;;;;7.93;7.10;;;5.10;33.30;;;;;;5072888;28;20233;-72
2020/12/12 00:51:24;;;;;;;7.63;5.37;;;5.10;33.10;;;;;;5073246;28;20196;-71
2020/12/12 00:53:50;;;;;;;7.13;6.43;;;5.10;33.30;;;;;;5073216;28;20637;-72
2020/12/12 00:56:16;;;;;;;7.13;6.10;;;5.10;33.60;;;;;;5073018;28;20652;-72
2020/12/12 00:58:42;;;;;;;7.33;6.27;;;5.10;33.90;;;;;;5071739;28;20579;-72
2020/12/12 01:01:08;;;;;;;8.15;6.32;;;5.10;33.60;;;;;;5072890;28;20439;-71
2020/12/12 01:03:34;;;;;;;7.60;6.40;;;5.00;33.10;;;;;;5073406;28;20175;-71
2020/12/12 01:06:00;;;;;;;7.07;6.47;;;5.00;33.50;;;;;;5070443;28;20218;-72
2020/12/12 01:08:26;;;;;;;8.65;6.78;;;5.00;33.50;;;;;;5072828;28;20468;-72
2020/12/12 01:10:52;;;;;;;7.17;6.50;;;5.00;33.30;;;;;;5072598;28;20239;-72
2020/12/12 01:13:17;;;;;;;15.63;7.60;;;4.90;33.40;;;;;;5072792;28;20195;-72
2020/12/12 01:15:44;;;;;;;7.73;6.97;;;4.90;33.60;;;;;;5072804;28;20207;-72
2020/12/12 01:18:10;;;;;;;7.07;6.32;;;4.90;33.70;;;;;;5072493;28;20422;-72
2020/12/12 01:20:36;;;;;;;6.40;5.80;;;4.90;34.00;;;;;;5071206;28;20209;-72
2020/12/12 01:23:01;;;;;;;7.88;7.03;;;4.90;34.10;;;;;;5073080;28;20187;-72
2020/12/12 01:25:27;;;;;;;12.47;7.20;;;4.90;34.20;;;;;;5072799;28;20730;-72
2020/12/12 01:27:52;;;;;;;6.50;5.30;;;4.80;34.10;;;;;;5072746;28;20184;-72
2020/12/12 01:30:18;;;;;;;8.20;6.60;;;4.80;34.30;;;;;;5072283;28;20269;-72
2020/12/12 01:32:44;;;;;;;10.73;7.20;;;4.80;34.50;;;;;;5072666;28;20171;-71
2020/12/12 01:35:09;;;;;;;9.60;7.20;;;4.80;34.40;;;;;;5072485;28;20179;-71
2020/12/12 01:37:35;;;;;;;7.10;6.00;;;4.80;34.90;;;;;;5072716;28;20170;-71
2020/12/12 01:40:00;;;;;;;7.30;6.17;;;4.80;35.40;;;;;;5073544;28;20695;-71
2020/12/12 01:42:26;;;;;;;7.77;6.97;;;4.80;35.30;;;;;;5076223;28;20174;-72
2020/12/12 01:44:56;;;;;;;8.40;5.73;;;4.80;35.40;;;;;;5072509;28;20211;-72
2020/12/12 01:47:23;;;;;;;6.53;5.53;;;4.90;35.40;;;;;;5072181;28;20254;-72
2020/12/12 01:49:50;;;;;;;6.45;5.82;;;4.90;35.40;;;;;;5072199;28;20539;-72
2020/12/12 01:52:16;;;;;;;10.73;7.65;;;4.90;35.30;;;;;;5071883;28;20164;-72
2020/12/12 01:54:46;;;;;;;6.87;6.27;;;4.90;35.30;;;;;;5072231;28;20177;-71
2020/12/12 01:57:14;;;;;;;8.35;7.55;;;4.90;35.50;;;;;;5072068;28;20409;-72
2020/12/12 01:59:39;;;;;;;6.90;6.30;;;4.90;35.00;;;;;;5071822;28;20196;-72
2020/12/12 02:02:10;;;;;;;6.73;6.03;;;4.90;35.10;;;;;;5072118;28;20582;-71
2020/12/12 02:04:41;;;;;;;7.45;6.72;;;4.90;34.70;;;;;;5072193;28;20413;-72
2020/12/12 02:07:07;;;;;;;8.98;8.10;;;4.90;34.90;;;;;;5071855;28;20243;-72
2020/12/12 02:09:33;;;;;;;12.37;8.83;;;4.90;34.40;;;;;;5071420;28;20232;-72
2020/12/12 02:12:00;;;;;;;10.23;8.95;;;4.80;34.50;;;;;;5071875;28;20187;-72
2020/12/12 02:14:26;;;;;;;7.18;6.47;;;4.80;34.70;;;;;;5070243;28;20660;-72
2020/12/12 02:16:53;;;;;;;9.57;8.60;;;4.80;34.50;;;;;;5070432;28;20183;-72
2020/12/12 02:19:19;;;;;;;9.60;7.45;;;4.80;34.50;;;;;;5072119;28;20196;-73
2020/12/12 02:21:49;;;;;;;7.30;6.60;;;4.90;35.00;;;;;;5072499;28;20170;-72
2020/12/12 02:24:15;;;;;;;8.48;7.57;;;4.90;34.90;;;;;;5072763;28;20232;-72
2020/12/12 02:26:41;;;;;;;8.60;7.80;;;5.00;34.80;;;;;;5072554;28;20233;-72
2020/12/12 02:29:10;;;;;;;9.63;8.37;;;5.00;34.70;;;;;;5070712;28;20181;-71
2020/12/12 02:31:35;;;;;;;7.78;7.07;;;5.00;34.60;;;;;;5072430;28;20686;-71
2020/12/12 02:34:01;;;;;;;7.40;6.70;;;5.00;35.00;;;;;;5072642;28;20175;-72
2020/12/12 02:36:26;;;;;;;10.50;8.50;;;5.00;34.60;;;;;;5071917;28;20188;-71
2020/12/12 02:38:52;;;;;;;10.63;6.87;;;5.10;34.50;;;;;;5070594;28;20237;-71
2020/12/12 02:41:17;;;;;;;11.67;9.20;;;5.00;34.70;;;;;;5079551;28;20215;-71
2020/12/12 02:43:47;;;;;;;8.10;7.30;;;5.00;34.40;;;;;;5079352;28;20349;-72
2020/12/12 02:46:12;;;;;;;8.02;6.95;;;5.00;34.60;;;;;;5080241;28;20457;-71
2020/12/12 02:48:38;;;;;;;9.57;8.07;;;5.00;34.40;;;;;;5080322;28;20194;-72
2020/12/12 02:51:03;;;;;;;11.70;7.30;;;5.00;34.50;;;;;;5080895;28;20196;-72
2020/12/12 02:53:29;;;;;;;10.63;8.57;;;5.00;34.70;;;;;;5078857;28;20234;-72
2020/12/12 02:55:54;;;;;;;9.07;8.27;;;5.00;34.70;;;;;;5080171;28;20267;-74
2020/12/12 02:58:20;;;;;;;9.50;8.37;;;4.90;34.90;;;;;;5080166;28;20183;-71
2020/12/12 03:00:45;;;;;;;12.10;9.10;;;4.90;34.90;;;;;;5079132;28;20213;-72
2020/12/12 03:03:11;;;;;;;10.10;8.93;;;4.90;34.70;;;;;;5078372;28;20292;-73
2020/12/12 03:05:36;;;;;;;10.17;8.37;;;4.90;34.80;;;;;;5079551;28;20204;-70
2020/12/12 03:08:02;;;;;;;8.60;7.70;;;4.90;35.20;;;;;;5079511;28;20265;-72
2020/12/12 03:10:28;;;;;;;8.67;7.97;;;4.90;35.50;;;;;;5078896;28;20693;-72
2020/12/12 03:12:53;;;;;;;10.00;8.97;;;4.90;35.60;;;;;;5079883;28;20326;-72
2020/12/12 03:15:19;;;;;;;11.30;8.97;;;4.90;35.70;;;;;;5079318;28;20182;-73
2020/12/12 03:17:44;;;;;;;12.13;7.23;;;4.90;35.60;;;;;;5080902;28;20179;-73
2020/12/12 03:20:10;;;;;;;10.23;8.10;;;5.00;35.80;;;;;;5079762;28;20201;-72
2020/12/12 03:22:35;;;;;;;6.17;5.50;;;5.00;35.30;;;;;;5078212;28;20702;-72
2020/12/12 03:25:02;;;;;;;10.00;8.43;;;5.00;35.40;;;;;;5079516;28;20184;-72
2020/12/12 03:27:27;;;;;;;7.63;6.93;;;5.00;35.40;;;;;;5078998;28;20176;-72
2020/12/12 03:29:53;;;;;;;8.00;7.20;;;5.00;35.60;;;;;;5082531;28;20498;-72
2020/12/12 03:32:19;;;;;;;6.23;5.27;;;5.00;35.80;;;;;;5082660;28;20180;-72
2020/12/12 03:34:44;;;;;;;8.07;6.30;;;5.00;36.00;;;;;;5083553;28;20176;-72
2020/12/12 03:37:11;;;;;;;8.33;6.10;;;5.10;35.70;;;;;;5083607;28;20178;-71
2020/12/12 03:39:37;;;;;;;7.93;6.47;;;5.10;35.70;;;;;;5083005;28;20207;-73
2020/12/12 03:42:03;;;;;;;6.00;5.47;;;5.10;35.70;;;;;;5083146;28;20178;-72
2020/12/12 03:44:28;;;;;;;8.13;6.13;;;5.20;35.60;;;;;;5082520;28;20392;-72
2020/12/12 03:46:54;;;;;;;6.50;5.90;;;5.20;35.40;;;;;;5081765;28;20223;-74
2020/12/12 03:49:20;;;;;;;6.43;5.60;;;5.10;35.60;;;;;;5082521;28;20195;-73
2020/12/12 03:51:46;;;;;;;5.70;5.17;;;5.20;36.20;;;;;;5082090;28;20279;-71
2020/12/12 03:54:11;;;;;;;6.53;5.93;;;5.20;35.50;;;;;;5081398;28;20445;-73
2020/12/12 03:56:37;;;;;;;5.60;4.90;;;5.20;35.50;;;;;;5082807;28;20629;-72
2020/12/12 03:59:02;;;;;;;5.40;4.90;;;5.20;35.70;;;;;;5081187;28;20707;-71
2020/12/12 04:01:28;;;;;;;5.53;5.03;;;5.20;35.80;;;;;;5082206;28;20204;-72
2020/12/12 04:03:54;;;;;;;5.72;5.18;;;5.20;35.70;;;;;;5081723;28;20181;-72
2020/12/12 04:06:21;;;;;;;5.50;3.63;;;5.30;35.80;;;;;;5082914;28;20669;-73
2020/12/12 04:08:48;;;;;;;4.47;4.07;;;5.30;35.70;;;;;;5081995;28;20180;-72
2020/12/12 04:11:13;;;;;;;4.83;4.00;;;5.40;35.30;;;;;;5081929;28;20499;-73
2020/12/12 04:13:39;;;;;;;5.67;4.00;;;5.40;35.20;;;;;;5083959;28;20410;-73
2020/12/12 04:16:04;;;;;;;5.90;4.07;;;5.50;35.10;;;;;;5083240;28;20191;-73
2020/12/12 04:18:30;;;;;;;3.67;3.20;;;5.50;35.20;;;;;;5083262;28;20183;-72
2020/12/12 04:20:56;;;;;;;4.23;2.77;;;5.60;35.20;;;;;;5082029;28;20201;-73
2020/12/12 04:23:21;;;;;;;5.00;3.33;;;5.60;35.10;;;;;;5081774;28;20215;-72
2020/12/12 04:25:47;;;;;;;4.53;3.63;;;5.60;35.10;;;;;;5083081;28;20277;-72
2020/12/12 04:28:12;;;;;;;3.47;3.20;;;5.60;35.40;;;;;;5082667;28;20183;-71
2020/12/12 04:30:38;;;;;;;3.30;3.00;;;5.60;35.60;;;;;;5082631;28;20189;-73
2020/12/12 04:33:03;;;;;;;3.97;3.17;;;5.60;35.90;;;;;;5081612;28;20306;-72
2020/12/12 04:35:29;;;;;;;3.73;3.20;;;5.60;36.10;;;;;;5082742;28;20196;-73
2020/12/12 04:37:54;;;;;;;4.23;3.03;;;5.60;36.50;;;;;;5083131;28;20183;-73
2020/12/12 04:40:21;;;;;;;3.53;2.50;;;5.60;36.80;;;;;;5082424;28;20213;-72
2020/12/12 04:42:47;;;;;;;3.43;2.20;;;5.60;37.50;;;;;;5083274;28;20201;-72
2020/12/12 04:45:20;;;;;;;2.30;2.10;;;5.60;37.60;;;;;;5080890;28;20550;-74
2020/12/12 04:47:47;;;;;;;2.20;2.00;;;5.60;38.10;;;;;;5082149;28;20790;-71
2020/12/12 04:50:13;;;;;;;2.28;1.88;;;5.50;38.40;;;;;;5082305;28;21130;-72
2020/12/12 04:52:41;;;;;;;4.83;2.13;;;5.50;38.50;;;;;;5081530;28;20184;-72
2020/12/12 04:55:08;;;;;;;1.73;1.10;;;5.50;38.60;;;;;;5081258;28;20214;-73
2020/12/12 04:57:38;;;;;;;2.90;2.13;;;5.50;38.90;;;;;;5080504;28;20445;-73
2020/12/12 05:00:11;;;;;;;2.17;1.65;;;5.40;38.50;;;;;;5081435;28;20431;-74
2020/12/12 05:02:37;;;;;;;2.47;1.70;;;5.50;38.50;;;;;;5081531;28;20176;-73
2020/12/12 05:05:05;;;;;;;1.60;1.50;;;5.50;39.40;;;;;;5081716;28;20424;-72
2020/12/12 05:07:30;;;;;;;2.10;1.47;;;5.50;39.70;;;;;;5080565;28;20171;-72
2020/12/12 05:09:56;;;;;;;1.60;1.37;;;5.40;39.60;;;;;;5080423;28;20459;-71
2020/12/12 05:12:22;;;;;;;1.90;1.70;;;5.40;39.90;;;;;;5080477;28;20199;-73
2020/12/12 05:14:54;;;;;;;1.80;1.25;;;5.40;39.50;;;;;;5079857;28;20203;-72
2020/12/12 05:17:20;;;;;;;4.33;1.60;;;5.40;39.80;;;;;;5081916;28;20182;-72
2020/12/12 05:19:49;;;;;;;2.25;1.50;;;;;;;;;;5081385;28;20434;-72
2020/12/12 05:22:16;;;;;;;3.10;1.25;;;5.40;40.00;;;;;;5081007;28;20184;-73
2020/12/12 05:24:42;;;;;;;1.67;1.17;;;5.40;40.10;;;;;;5079715;28;20176;-73
2020/12/12 05:27:08;;;;;;;2.53;2.20;;;5.40;40.50;;;;;;5081035;28;20696;-73
2020/12/12 05:29:34;;;;;;;2.78;1.73;;;5.40;40.10;;;;;;5081415;28;20434;-73
2020/12/12 05:32:01;;;;;;;2.60;1.17;;;5.40;40.10;;;;;;5082707;28;20177;-72
2020/12/12 05:34:27;;;;;;;1.73;1.20;;;5.30;40.60;;;;;;5079932;28;20426;-71
2020/12/12 05:36:54;;;;;;;4.17;1.87;;;5.40;40.70;;;;;;5080001;28;20433;-71
2020/12/12 05:39:20;;;;;;;2.10;1.10;;;5.40;41.00;;;;;;5079664;28;20187;-73
2020/12/12 05:41:47;;;;;;;4.60;1.65;;;5.40;40.40;;;;;;5080446;28;20184;-71
2020/12/12 05:44:15;;;;;;;2.00;1.80;;;5.40;40.20;;;;;;5080911;28;20252;-71
2020/12/12 05:46:42;;;;;;;1.88;1.70;;;5.40;40.60;;;;;;5082451;28;20462;-72
2020/12/12 05:49:08;;;;;;;1.95;1.13;;;5.40;40.70;;;;;;5081445;28;20199;-72
2020/12/12 05:51:33;;;;;;;2.17;1.80;;;5.40;40.80;;;;;;5081958;28;20170;-71
2020/12/12 05:54:00;;;;;;;1.70;1.40;;;5.40;40.70;;;;;;5083658;28;20186;-73
2020/12/12 05:56:27;;;;;;;2.13;1.73;;;5.30;40.90;;;;;;5081500;28;20176;-73
2020/12/12 05:58:54;;;;;;;1.80;1.70;;;5.30;40.80;;;;;;5080798;28;20501;-73
2020/12/12 06:01:25;;;;;;;1.90;1.70;;;5.30;40.90;;;;;;5080619;28;20434;-72
2020/12/12 06:03:57;;;;;;;1.58;1.33;;;5.20;41.50;;;;;;5081026;28;20456;-73
2020/12/12 06:06:24;;;;;;;2.20;1.90;;;5.20;41.90;;;;;;5082769;28;20230;-73
2020/12/12 06:09:00;;;;;;;2.20;2.00;;;5.20;41.80;;;;;;5082466;28;20194;-73
2020/12/12 06:11:28;;;;;;;1.83;1.58;;;5.20;41.60;;;;;;5082995;28;20191;-72
2020/12/12 06:13:58;;;;;;;2.40;1.92;;;5.10;41.40;;;;;;5083086;28;20168;-73
2020/12/12 06:16:26;;;;;;;2.35;2.15;;;5.20;41.80;;;;;;5082016;28;20174;-73
2020/12/12 06:19:06;;;;;;;2.05;1.75;;;5.10;41.70;;;;;;5080734;28;20186;-71
2020/12/12 06:21:33;;;;;;;3.30;2.05;;;5.10;41.70;;;;;;5081819;28;20232;-71
2020/12/12 06:24:00;;;;;;;1.83;1.70;;;5.10;41.80;;;;;;5082591;28;20175;-73
2020/12/12 06:26:31;;;;;;;3.20;2.42;;;;;;;;;;5083428;28;20215;-72
2020/12/12 06:28:58;;;;;;;3.17;2.90;;;;;;;;;;5082564;28;20175;-72
2020/12/12 06:31:24;;;;;;;3.05;2.38;;;;;;;;;;5083481;28;20454;-73
2020/12/12 06:33:52;;;;;;;2.78;2.53;;;;;;;;;;5082584;28;20181;-73
2020/12/12 06:36:28;;;;;;;2.73;2.53;;;5.10;42.10;;;;;;5083100;28;20180;-74
2020/12/12 06:39:15;;;;;;;2.73;2.53;;;5.10;42.00;;;;;;5083624;28;20421;-73
2020/12/12 06:41:41;;;;;;;3.05;2.63;;;5.10;41.70;;;;;;5082725;28;20430;-73
2020/12/12 06:44:07;;;;;;;3.00;2.57;;;5.10;41.60;;;;;;5082054;28;20187;-73
2020/12/12 06:46:53;;;;;;;2.70;2.05;;;5.20;41.60;;;;;;5082470;28;20463;-73
2020/12/12 06:49:21;;;;;;;3.30;3.00;;;5.20;41.50;;;;;;5080141;28;20219;-72
2020/12/12 06:51:47;;;;;;;2.80;2.55;;;5.20;41.10;;;;;;5081760;28;20161;-73
2020/12/12 06:54:13;;;;;;;2.55;2.15;;;5.10;40.80;;;;;;5081030;28;20264;-72
2020/12/12 06:56:38;;;;;;;3.70;2.93;;;5.10;41.90;;;;;;5080613;28;20652;-72
2020/12/12 06:59:29;;;;;;;3.53;3.00;;;5.10;40.90;;;;;;5081418;28;20182;-71
2020/12/12 07:02:16;;;;;;;2.88;2.53;;;5.10;41.30;;;;;;5080961;28;20195;-70
2020/12/12 07:04:42;;;;;;;3.60;2.88;;;5.00;41.50;;;;;;5085867;28;20289;-71
2020/12/12 07:07:11;;;;;;;3.00;2.60;;;5.00;41.60;;;;;;5085059;28;20199;-71
2020/12/12 07:09:41;;;;;;;4.35;3.75;;;5.00;41.80;;;;;;5084711;28;20204;-71
2020/12/12 07:12:08;;;;;;;3.58;3.10;;;5.00;41.80;;;;;;5085216;28;20186;-71
2020/12/12 07:14:36;;;;;;;3.67;2.60;;;5.00;42.00;;;;;;5085419;28;20176;-73
2020/12/12 07:17:01;;;;;;;3.58;2.97;;;5.00;42.20;;;;;;5087017;28;20197;-73
2020/12/12 07:19:36;;;;;;;3.43;3.10;;;5.00;42.20;;;;;;5086419;28;20175;-72
2020/12/12 07:22:05;;;;;;;4.30;3.83;;;5.00;42.20;;;;;;5085927;28;20405;-72
2020/12/12 07:24:32;;;;;;;5.60;4.40;;;5.10;42.10;;;;;;5086726;28;20179;-71
2020/12/12 07:26:58;;;;;;;3.70;3.40;;;5.10;42.20;;;;;;5089517;28;20212;-72
2020/12/12 07:29:25;;;;;;;5.30;3.20;;;5.10;42.70;;;;;;5094756;28;20168;-73
2020/12/12 07:31:51;;;;;;;5.00;3.53;;;5.20;42.70;;;;;;5087643;28;20182;-73
2020/12/12 07:34:21;;;;;;;5.40;3.90;;;;;;;;;;5084777;28;20234;-73
2020/12/12 07:37:08;;;;;;;4.63;3.88;;;5.30;41.80;;;;;;5084038;28;20650;-72
2020/12/12 07:39:34;;;;;;;5.17;4.50;;;5.40;41.20;;;;;;5085932;28;20307;-72
2020/12/12 07:42:02;;;;;;;5.30;3.90;;;5.50;41.30;;;;;;5085304;28;20445;-72
2020/12/12 07:44:32;;;;;;;4.13;3.72;;;5.60;40.70;;;;;;5084791;28;20436;-70
2020/12/12 07:47:07;;;;;;;3.53;3.23;;;5.60;40.40;;;;;;5086638;28;20289;-73
2020/12/12 07:49:34;;;;;;;5.95;3.20;;;5.70;40.20;;;;;;5085333;28;20449;-73
2020/12/12 07:52:06;;;;;;;4.13;3.83;;;5.70;39.50;;;;;;5085858;28;20184;-73
2020/12/12 07:54:34;;;;;;;4.90;4.05;;;5.70;39.40;;;;;;5085037;28;20786;-72
2020/12/12 07:57:00;;;;;;;4.07;3.67;;;5.80;39.30;;;;;;5074755;28;20171;-72
2020/12/12 07:59:25;;;;;;;4.00;3.60;;;5.90;38.80;;;;;;5074224;28;20916;-72
2020/12/12 08:01:51;;;;;;;5.00;4.57;;;5.90;38.80;;;;;;5082948;28;20197;-74
2020/12/12 08:04:21;;;;;;;5.77;4.17;;;6.00;38.90;;;;;;5076539;28;20188;-73
2020/12/12 08:06:47;;;;;;;4.73;4.30;;;6.20;41.20;;;;;;5074351;28;20292;-71
2020/12/12 08:09:17;;;;;;;4.17;3.57;;;6.20;38.00;;;;;;5074252;28;20495;-73
2020/12/12 08:11:43;;;;;;;8.10;5.10;;;6.20;37.50;;;;;;5074829;28;20181;-72
2020/12/12 08:14:08;;;;;;;4.83;4.43;;;6.20;37.30;;;;;;5073225;28;20413;-72
2020/12/12 08:16:41;;;;;;;7.10;4.83;;;6.20;37.10;;;;;;5074382;28;20243;-72
2020/12/12 08:19:06;;;;;;;4.57;4.17;;;6.20;37.00;;;;;;5072743;28;20284;-72
2020/12/12 08:21:32;;;;;;;6.73;5.27;;;6.30;37.40;;;;;;5074348;28;20519;-72
2020/12/12 08:23:59;;;;;;;4.13;3.80;;;6.30;37.70;;;;;;5074409;28;20207;-72
2020/12/12 08:26:25;;;;;;;4.57;4.17;;;6.40;37.60;;;;;;5074795;28;20466;-72
2020/12/12 08:28:51;;;;;;;4.60;4.20;;;6.40;37.50;;;;;;5074544;28;20415;-72
2020/12/12 08:31:21;;;;;;;4.47;3.80;;;6.40;40.60;;;;;;5074027;28;20862;-72
2020/12/12 08:33:56;;;;;;;4.83;4.17;;;6.50;36.80;;;;;;5075827;28;20410;-71
2020/12/12 08:36:29;;;;;;;4.40;4.00;;;6.50;36.80;;;;;;5074599;28;20411;-71
2020/12/12 08:39:06;;;;;;;3.73;3.43;;;6.60;36.40;;;;;;5075556;28;20515;-71
2020/12/12 08:41:35;;;;;;;4.50;4.07;;;6.60;36.20;;;;;;5085029;28;20452;-72
2020/12/12 08:44:02;;;;;;;8.43;3.93;;;6.70;36.30;;;;;;5086329;28;20400;-71
2020/12/12 08:46:28;;;;;;;4.57;4.17;;;6.80;36.30;;;;;;5085823;28;20467;-71
2020/12/12 08:48:54;;;;;;;5.33;3.60;;;6.80;36.20;;;;;;5087892;28;20435;-73
2020/12/12 08:51:28;;;;;;;5.00;3.87;;;6.90;35.90;;;;;;5087731;28;20432;-74
2020/12/12 08:53:55;;;;;;;4.53;3.90;;;7.00;36.30;;;;;;5085882;28;20428;-72
2020/12/12 08:56:26;;;;;;;4.43;4.03;;;7.10;36.70;;;;;;5077523;28;20932;-72
2020/12/12 08:59:05;;;;;;;7.40;4.30;;;7.20;36.00;;;;;;5075656;28;20424;-72
2020/12/12 09:01:44;;;;;;;5.00;4.47;;;7.20;35.90;;;;;;5079162;28;20464;-73
2020/12/12 09:04:10;;;;;;;7.63;5.70;;;7.30;35.80;;;;;;5082510;28;20431;-72
2020/12/12 09:06:41;;;;;;;6.30;5.40;;;7.30;36.10;;;;;;5076924;28;20831;-72
2020/12/12 09:09:08;;;;;;;9.90;4.60;;;7.40;36.20;;;;;;5077725;28;20466;-71
2020/12/12 09:11:34;;;;;;;4.80;4.40;;;7.40;36.60;;;;;;5074782;28;20488;-71
2020/12/12 09:14:01;;;;;;;4.77;4.37;;;7.40;36.00;;;;;;5078675;28;20464;-72
2020/12/12 09:16:29;;;;;;;5.37;4.87;;;7.60;35.10;;;;;;5077004;28;20787;-72
2020/12/12 09:18:55;;;;;;;3.97;3.57;;;7.60;35.90;;;;;;5076475;28;20503;-73
2020/12/12 09:21:21;;;;;;;5.87;3.80;;;7.60;35.10;;;;;;5074258;28;20507;-72
2020/12/12 09:23:47;;;;;;;4.93;3.50;;;7.70;35.20;;;;;;5073289;28;20182;-72
2020/12/12 09:26:13;;;;;;;7.60;4.47;;;7.70;35.20;;;;;;5074742;28;20991;-72
2020/12/12 09:28:38;;;;;;;6.67;6.07;;;7.70;35.20;;;;;;5073736;28;20189;-73
2020/12/12 09:31:05;;;;;;;8.40;4.80;;;7.70;35.20;;;;;;5080387;28;20442;-71
2020/12/12 09:33:30;;;;;;;5.13;4.63;;;7.80;35.30;;;;;;5097197;28;20182;-72
2020/12/12 09:35:56;;;;;;;4.60;3.83;;;7.70;35.20;;;;;;5079601;28;20465;-72
2020/12/12 09:38:22;;;;;;;4.80;4.23;;;7.70;35.10;;;;;;5074305;28;20206;-71
2020/12/12 09:40:51;;;;;;;7.60;5.87;;;7.80;34.50;;;;;;5075646;28;20214;-74
2020/12/12 09:43:18;;;;;;;11.00;7.80;;;7.70;34.70;;;;;;5079561;28;20209;-71
2020/12/12 09:45:44;;;;;;;14.27;9.90;;;7.70;35.20;;;;;;5073948;28;20488;-71
2020/12/12 09:48:10;;;;;;;19.87;12.80;;;7.80;34.50;;;;;;5073869;28;20414;-71
2020/12/12 09:50:36;;;;;;;23.13;18.53;;;7.80;34.60;;;;;;5070631;28;20519;-71
2020/12/12 09:53:06;;;;;;;29.60;24.13;;;7.80;34.50;;;;;;5072847;28;20903;-71
2020/12/12 09:55:33;;;;;;;19.20;15.40;;;7.90;34.40;;;;;;5074011;28;20580;-71
2020/12/12 09:58:00;;;;;;;15.60;11.17;;;7.90;33.60;;;;;;5073375;28;20431;-72
2020/12/12 10:00:26;;;;;;;17.33;13.90;;;7.90;33.50;;;;;;5071117;28;20795;-71
2020/12/12 10:02:52;;;;;;;12.17;10.07;;;7.90;33.50;;;;;;5073629;28;20425;-72
2020/12/12 10:05:18;;;;;;;7.80;5.93;;;7.90;33.20;;;;;;5070767;28;20420;-72
2020/12/12 10:07:43;;;;;;;9.07;5.30;;;7.80;32.70;;;;;;5071076;28;20442;-72
2020/12/12 10:10:09;;;;;;;10.40;8.63;;;7.90;33.10;;;;;;5071869;28;20209;-72
2020/12/12 10:12:35;;;;;;;14.03;12.73;;;7.80;33.60;;;;;;5072440;28;20206;-72
2020/12/12 10:15:01;;;;;;;9.20;7.50;;;7.70;33.60;;;;;;5072005;28;20201;-71
2020/12/12 10:17:31;;;;;;;6.07;5.53;;;7.70;33.60;;;;;;5073269;28;20657;-72
2020/12/12 10:19:57;;;;;;;8.63;7.80;;;7.70;33.80;;;;;;5072243;28;20439;-73
2020/12/12 10:22:22;;;;;;;8.40;5.93;;;7.60;34.20;;;;;;5072671;28;20549;-72
2020/12/12 10:24:48;;;;;;;7.97;7.00;;;7.60;33.20;;;;;;5073941;28;20420;-72
2020/12/12 10:27:14;;;;;;;7.67;6.97;;;7.50;33.60;;;;;;5073805;28;20206;-72
2020/12/12 10:29:39;;;;;;;12.50;8.50;;;7.50;33.70;;;;;;5076720;28;20233;-73
2020/12/12 10:32:05;;;;;;;10.30;7.73;;;7.50;33.40;;;;;;5073652;28;20171;-73
2020/12/12 10:34:30;;;;;;;17.20;9.57;;;7.50;34.30;;;;;;5072280;28;20209;-73
2020/12/12 10:36:56;;;;;;;7.10;6.17;;;7.50;34.00;;;;;;5072200;28;20178;-72
2020/12/12 10:39:27;;;;;;;6.80;5.20;;;7.40;34.50;;;;;;5072796;28;20201;-72
2020/12/12 10:41:53;;;;;;;9.93;5.77;;;7.40;35.00;;;;;;5073435;28;20270;-73
2020/12/12 10:44:19;;;;;;;11.97;6.93;;;7.50;35.00;;;;;;5071127;28;20459;-73
2020/12/12 10:46:44;;;;;;;17.80;11.27;;;7.50;35.00;;;;;;5072379;28;20198;-72
2020/12/12 10:49:10;;;;;;;9.00;7.87;;;7.40;35.60;;;;;;5071747;28;20183;-72
2020/12/12 10:51:42;;;;;;;14.03;11.70;;;7.50;36.00;;;;;;5071824;28;20174;-72
2020/12/12 10:54:07;;;;;;;12.77;10.77;;;7.50;36.80;;;;;;5072983;28;20167;-72
2020/12/12 10:56:35;;;;;;;9.90;8.87;;;7.50;36.50;;;;;;5073128;28;20942;-72
2020/12/12 10:59:01;;;;;;;10.30;8.53;;;7.60;36.60;;;;;;5072879;28;20516;-72
2020/12/12 11:01:26;;;;;;;10.63;8.40;;;7.50;37.20;;;;;;5072562;28;20523;-72
2020/12/12 11:03:52;;;;;;;9.30;8.40;;;7.50;37.70;;;;;;5072380;28;20179;-72
2020/12/12 11:06:17;;;;;;;10.47;9.40;;;7.60;37.60;;;;;;5069840;28;20304;-72
2020/12/12 11:08:43;;;;;;;15.43;11.53;;;7.60;38.10;;;;;;5072432;28;20240;-72
2020/12/12 11:11:09;;;;;;;11.13;8.40;;;7.70;38.30;;;;;;5072295;28;20207;-72
2020/12/12 11:13:34;;;;;;;13.23;8.43;;;7.70;38.20;;;;;;5072835;28;20218;-73
2020/12/12 11:16:00;;;;;;;8.40;7.53;;;7.70;38.70;;;;;;5071379;28;20208;-72
2020/12/12 11:18:25;;;;;;;12.83;8.13;;;7.80;37.80;;;;;;5052426;28;20198;-72
2020/12/12 11:20:51;;;;;;;5.73;5.23;;;7.90;38.30;;;;;;5062705;28;20437;-73
2020/12/12 11:23:16;;;;;;;8.57;6.70;;;7.90;38.60;;;;;;5061805;28;20195;-72
2020/12/12 11:25:42;;;;;;;12.10;8.60;;;8.00;39.00;;;;;;5050805;28;20576;-74
2020/12/12 11:28:07;;;;;;;11.37;8.40;;;8.00;39.20;;;;;;5051071;28;20183;-73
2020/12/12 11:30:33;;;;;;;7.50;6.10;;;8.10;39.00;;;;;;5051303;28;20217;-74
2020/12/12 11:32:59;;;;;;;9.70;8.70;;;8.10;42.10;;;;;;5053437;28;20174;-72
2020/12/12 11:38:39;;;;;;;7.40;6.70;;;8.30;43.00;;;;;;5055039;28;20226;-72
2020/12/12 11:48:35;;;;;;;8.43;7.63;;;8.30;45.40;;;;;;5070875;28;20170;-74
2020/12/12 11:51:00;;;;;;;9.50;8.40;;;8.40;45.90;;;;;;5060722;28;20453;-75
2020/12/12 11:53:26;;;;;;;7.90;7.20;;;8.40;47.10;;;;;;5060561;28;20673;-74
2020/12/12 11:55:51;;;;;;;7.83;7.13;;;8.40;39.00;;;;;;5061835;28;20660;-74
2020/12/12 11:58:17;;;;;;;7.23;6.53;;;8.40;39.40;;;;;;5062163;28;20180;-73
2020/12/12 12:00:45;;;;;;;6.07;5.43;;;8.40;39.30;;;;;;5060364;28;20229;-73
2020/12/12 12:03:12;;;;;;;6.50;5.90;;;8.40;39.50;;;;;;5060876;28;20172;-74
2020/12/12 12:05:37;;;;;;;9.27;8.13;;;8.40;40.20;;;;;;5077333;28;20476;-73
2020/12/12 12:08:05;;;;;;;6.70;6.10;;;8.50;39.80;;;;;;5080467;28;20421;-72
2020/12/12 12:10:40;;;;;;;5.23;4.70;;;8.50;39.00;;;;;;5077961;28;20187;-72
2020/12/12 12:13:06;;;;;;;5.57;4.73;;;8.50;39.20;;;;;;5054819;28;20780;-71
2020/12/12 12:15:31;;;;;;;9.53;6.20;;;8.50;38.50;;;;;;5057810;28;20426;-73
2020/12/12 12:17:57;;;;;;;6.77;6.07;;;8.30;39.00;;;;;;5055795;28;20206;-73
2020/12/12 12:20:24;;;;;;;7.67;5.73;;;8.30;39.70;;;;;;5071107;28;20201;-70
2020/12/12 12:22:53;;;;;;;12.53;11.33;;;8.30;39.90;;;;;;5081468;28;20387;-74
2020/12/12 12:25:18;;;;;;;18.53;12.00;;;8.30;39.40;;;;;;5096691;28;20863;-74
2020/12/12 12:27:44;;;;;;;10.97;9.97;;;8.30;39.30;;;;;;5096571;28;20479;-70
2020/12/12 12:30:09;;;;;;;10.10;8.47;;;8.30;39.20;;;;;;5098326;28;20245;-73
2020/12/12 12:32:35;;;;;;;5.77;5.27;;;8.30;39.10;;;;;;5097995;28;20179;-72
2020/12/12 12:35:01;;;;;;;11.70;5.87;;;8.20;38.90;;;;;;5071545;28;20484;-72
2020/12/12 12:37:27;;;;;;;5.03;4.53;;;8.20;39.30;;;;;;5055940;28;20751;-73
2020/12/12 12:39:52;;;;;;;4.90;3.90;;;8.10;39.20;;;;;;5058575;28;20469;-72
2020/12/12 12:42:21;;;;;;;5.87;4.50;;;8.10;39.30;;;;;;5059693;28;20217;-73
2020/12/12 12:44:47;;;;;;;7.53;6.10;;;8.10;39.60;;;;;;5059146;28;20218;-73
2020/12/12 12:47:12;;;;;;;11.97;7.30;;;7.90;40.00;;;;;;5062087;28;20461;-72
2020/12/12 12:49:38;;;;;;;7.20;5.87;;;7.90;40.50;;;;;;5073406;28;20210;-74
2020/12/12 12:52:04;;;;;;;6.27;5.10;;;7.80;40.40;;;;;;5082512;28;20182;-73
2020/12/12 12:54:30;;;;;;;6.87;5.33;;;7.80;40.40;;;;;;5084869;28;20175;-73
2020/12/12 12:56:59;;;;;;;6.53;5.80;;;7.70;40.40;;;;;;5087079;28;20447;-73
2020/12/12 12:59:25;;;;;;;7.90;5.63;;;7.60;40.50;;;;;;5085628;28;20178;-73
2020/12/12 13:01:51;;;;;;;6.63;5.90;;;7.60;41.30;;;;;;5086384;28;20445;-73
2020/12/12 13:04:17;;;;;;;4.60;4.20;;;7.50;41.20;;;;;;5085551;28;20193;-73
2020/12/12 13:06:43;;;;;;;6.97;5.20;;;7.50;41.20;;;;;;5086966;28;20475;-72